Rogersville, TN

12:56 PM EDT on September 01, 2015 (GMT -0400)
North Zion Hill Rd. | | Change Station
CLOSE
Current Station
Personal Weather Station
Location: Surgoinsville, TN
Elevation: 1308 ft
Nearby Weather Stations

Elev 1308 ft 36.48 °N, 82.88 °W | Updated 49 seconds ago

Partly Cloudy
Partly Cloudy
83.4 °F
Feels Like 86 °F
N
3.0
Wind Variable Wind from SSW
Gusts 3.0 mph

Today
High -- | Low -- °F
--% Chance of Precip.
Yesterday
High -- | Low -- °F
Precip. -- in
7:03 AM 8:00 PM
Waning Gibbous, 88% visible
Pressure 30.19 in
Visibility 10.0 miles
Clouds Scattered Clouds 3700 ft
Heat Index 86 °F
Dew Point 67 °F
Humidity 58%
Rainfall 0.00 in
Snow Depth Not available.
UV 8 out of 12
Pollen 8.80 out of 12
Air Quality Not available.
Flu Activity Not available.
METAR K0VG 011635Z AUTO 08004KT 10SM SCT037 29/18 A3019 RMK AO2
Pressure 30.19 in
Visibility 10.0 miles
Clouds Scattered Clouds 3700 ft
Heat Index 86 °F
Dew Point 67 °F
Humidity 58%
Rainfall 0.00 in
Snow Depth Not available.
UV 8 out of 12
Pollen 8.80 out of 12
Air Quality Not available.
Flu Activity Not available.
METAR K0VG 011635Z AUTO 08004KT 10SM SCT037 29/18 A3019 RMK AO2

10-Day Weather Forecast

×

Almanac

Astronomy

Sep. 01, 2015 Rise Set
Actual Time
Civil Twilight
Nautical Twilight
Astronomical Twilight
Moon
Length of Visible Light
Length of Day
Tomorrow will be .
, % of the Moon is Illuminated

Today's Extremes

State Highs State Lows

Community

WunderPhotos

Upload Photos

1,851,555 photos uploaded!

WunderBlogs® & News

Nearby

Air Quality

  Air Quality AQ Index Pollutant
Not available.

Snow Depth

Station Depth Elevation

Earthquake Activity

City Distance Mag. Time & Date
Minimum magnitude displayed is 2.5.

Coastal Water Temperatures

Place Temperature

Stations

Nearby Weather Stations

Station Location Temp. Windchill Dew Point Humidity Wind Precip. Elev Updated Type